Time;durP1;ratioP1;P1;durP2;ratioP2;P2;SDS_P1;SDS_P2;PMS_P1;PMS_P2;Temp;Humidity;BMP_temperature;BMP_pressure;BME280_temperature;BME280_humidity;BME280_pressure;Samples;Min_cycle;Max_cycle;Signal;HPM_P1;HPM_P2
2021/12/17 00:01:05;;;;;;;41.10;29.95;;;;;;;7.04;100.00;104016.19;5054035;28;20028;-74
2021/12/17 00:03:40;;;;;;;40.47;28.60;;;;;;;6.87;100.00;103981.88;5053013;28;20033;-83
2021/12/17 00:08:37;;;;;;;39.53;27.98;;;;;;;6.94;100.00;103983.59;5055034;28;20072;-81
2021/12/17 00:11:04;;;;;;;44.30;29.55;;;;;;;6.97;100.00;103983.59;5054875;28;20461;-74
2021/12/17 00:13:30;;;;;;;58.30;35.35;;;;;;;7.14;100.00;104007.63;5054772;28;20021;-78
2021/12/17 00:15:56;;;;;;;53.78;31.90;;;;;;;7.18;100.00;104003.38;5054856;28;20025;-83
2021/12/17 00:18:28;;;;;;;63.05;36.47;;;;;;;7.19;100.00;104005.94;5052360;28;20048;-75
2021/12/17 00:53:17;;;;;;;69.72;34.97;;;;;;;7.15;100.00;103978.50;5054172;28;20105;-84
2021/12/17 00:55:42;;;;;;;75.97;32.83;;;;;;;7.31;100.00;104009.38;5053903;28;20025;-81
2021/12/17 00:58:08;;;;;;;74.70;33.42;;;;;;;7.31;100.00;103999.13;5053920;28;20025;-80
2021/12/17 01:00:33;;;;;;;68.22;33.53;;;;;;;7.33;100.00;104002.53;5054278;28;20017;-85
2021/12/17 01:02:58;;;;;;;63.05;31.65;;;;;;;7.32;100.00;104003.41;5053967;28;20108;-77
2021/12/17 01:05:29;;;;;;;71.65;33.78;;;;;;;7.24;100.00;103985.38;5054107;28;20029;-74
2021/12/17 01:07:56;;;;;;;64.50;31.80;;;;;;;7.32;100.00;103998.25;5053952;28;20025;-84
2021/12/17 01:10:29;;;;;;;81.63;37.53;;;;;;;7.34;100.00;104001.69;5053753;28;20151;-77
2021/12/17 01:12:57;;;;;;;82.60;37.42;;;;;;;7.32;100.00;103996.53;5053699;28;20082;-77
2021/12/17 01:15:23;;;;;;;81.95;36.08;;;;;;;7.30;100.00;103995.69;5054098;28;20029;-80
2021/12/17 01:17:53;;;;;;;82.38;35.50;;;;;;;7.27;100.00;103990.50;5053441;28;20045;-82
2021/12/17 01:20:45;;;;;;;73.18;34.38;;;;;;;7.23;100.00;103983.66;5053743;28;20031;-83
2021/12/17 01:36:29;;;;;;;99.15;37.28;;;;;;;7.34;100.00;103974.25;5053819;28;20530;-83
2021/12/17 01:44:17;;;;;;;90.55;36.53;;;;;;;7.37;100.00;103974.25;5053047;28;20473;-82
2021/12/17 01:46:46;;;;;;;97.10;39.55;;;;;;;7.37;100.00;103978.53;5053298;28;20067;-78
2021/12/17 02:00:12;;;;;;;91.25;35.42;;;;;;;7.39;100.00;103987.97;5052762;28;20124;-82
2021/12/17 02:02:43;;;;;;;80.20;33.15;;;;;;;7.33;100.00;103979.41;4972225;28;20039;-80
2021/12/17 02:05:10;;;;;;;89.18;35.63;;;;;;;7.34;100.00;103988.81;4972105;28;20035;-84
2021/12/17 02:07:36;;;;;;;92.60;36.20;;;;;;;7.29;100.00;103975.97;4972290;28;20505;-78
2021/12/17 02:29:03;;;;;;;95.68;35.42;;;;;;;7.30;100.00;103984.53;4972167;28;20115;-80
2021/12/17 02:31:31;;;;;;;96.47;35.92;;;;;;;7.26;100.00;103985.38;4971680;28;20082;-85
2021/12/17 02:34:05;;;;;;;99.18;36.22;;;;;;;7.30;100.00;103997.41;4971753;28;20166;-80
2021/12/17 02:36:33;;;;;;;98.75;36.45;;;;;;;7.31;100.00;103989.69;4971811;28;20499;-83
2021/12/17 02:39:34;;;;;;;96.65;37.88;;;;;;;7.24;100.00;103972.53;4990992;28;20045;-72
2021/12/17 02:47:21;;;;;;;89.93;33.90;;;;;;;6.97;100.00;103928.78;5056704;28;20080;-83
2021/12/17 02:49:47;;;;;;;90.28;34.28;;;;;;;7.34;100.00;103993.97;5056480;28;20032;-73
2021/12/17 02:52:14;;;;;;;94.63;36.85;;;;;;;7.32;100.00;103985.41;5056474;28;20058;-76
2021/12/17 02:54:40;;;;;;;95.60;34.55;;;;;;;7.33;100.00;103990.53;5056337;28;20025;-80
2021/12/17 02:57:07;;;;;;;95.63;37.45;;;;;;;7.34;100.00;103989.69;5056283;28;20111;-85
2021/12/17 02:59:34;;;;;;;96.57;36.38;;;;;;;7.37;100.00;103996.53;5056348;28;20029;-83
2021/12/17 03:02:01;;;;;;;90.07;35.45;;;;;;;7.34;100.00;103993.97;5056401;28;20039;-73
2021/12/17 03:04:29;;;;;;;87.90;34.10;;;;;;;7.35;100.00;103991.38;5056247;28;20146;-82
2021/12/17 03:06:55;;;;;;;96.35;36.50;;;;;;;7.34;100.00;103992.25;5056189;28;20021;-78
2021/12/17 03:09:32;;;;;;;91.38;36.17;;;;;;;7.35;100.00;103991.38;5056106;28;20105;-82
2021/12/17 03:11:57;;;;;;;87.40;35.30;;;;;;;7.34;100.00;103991.38;5053891;28;20400;-81
2021/12/17 03:14:22;;;;;;;91.35;36.67;;;;;;;7.33;100.00;103982.81;5056057;28;20029;-76
2021/12/17 03:17:00;;;;;;;96.97;35.60;;;;;;;7.33;100.00;103982.81;5055675;28;20068;-85
2021/12/17 03:23:27;;;;;;;98.00;36.42;;;;;;;7.30;100.00;103985.41;5055976;28;20036;-77
2021/12/17 03:24:56;;;;;;;104.25;38.13;;;;;;;7.28;100.00;103986.25;5056002;28;20052;-83
2021/12/17 03:27:22;;;;;;;103.90;37.97;;;;;;;7.29;100.00;103993.97;5055612;28;20385;-84
2021/12/17 03:29:47;;;;;;;101.68;36.70;;;;;;;7.31;100.00;103991.41;5055723;28;20464;-83
2021/12/17 03:32:12;;;;;;;106.45;37.40;;;;;;;7.21;100.00;103981.97;5055808;28;20477;-76
2021/12/17 03:34:38;;;;;;;108.90;37.28;;;;;;;7.28;100.00;103993.97;5055860;28;20468;-81
2021/12/17 03:37:04;;;;;;;104.80;38.33;;;;;;;7.19;100.00;103981.97;5055644;28;20032;-74
2021/12/17 03:39:30;;;;;;;113.65;36.42;;;;;;;7.26;100.00;103991.38;5055617;28;20025;-74
2021/12/17 03:41:57;;;;;;;100.07;36.88;;;;;;;7.11;100.00;103969.09;5055296;28;20033;-84
2021/12/17 03:44:22;;;;;;;106.35;36.78;;;;;;;7.00;100.00;103947.66;5055505;28;20033;-78
2021/12/17 03:46:49;;;;;;;108.88;38.17;;;;;;;7.24;100.00;103992.22;5055616;28;20032;-73
2021/12/17 03:49:15;;;;;;;110.72;38.53;;;;;;;7.19;100.00;103990.53;5055509;28;20086;-76
2021/12/17 03:51:50;;;;;;;99.55;36.42;;;;;;;7.13;100.00;103972.50;5055229;28;20094;-79
2021/12/17 03:54:15;;;;;;;97.75;35.88;;;;;;;7.23;100.00;103990.53;5054175;28;20492;-84
2021/12/17 03:56:41;;;;;;;95.18;34.97;;;;;;;7.27;100.00;103990.50;5054942;28;20086;-82
2021/12/17 03:59:10;;;;;;;95.90;35.05;;;;;;;7.31;100.00;103996.53;5055462;28;20078;-84
2021/12/17 04:01:38;;;;;;;93.40;35.55;;;;;;;7.31;100.00;103989.69;5055332;28;20096;-81
2021/12/17 04:04:04;;;;;;;103.15;37.47;;;;;;;7.30;100.00;103989.69;5055134;28;20080;-83
2021/12/17 04:06:29;;;;;;;93.28;35.67;;;;;;;7.30;100.00;103989.69;5054909;28;20044;-73
2021/12/17 04:08:55;;;;;;;94.82;36.58;;;;;;;7.05;100.00;103955.38;5054985;28;20024;-80
2021/12/17 04:11:21;;;;;;;93.60;35.50;;;;;;;7.26;100.00;103991.38;5054589;28;20021;-81
2021/12/17 04:13:54;;;;;;;94.65;35.67;;;;;;;7.22;100.00;103984.53;5054815;28;20036;-73
2021/12/17 04:16:24;;;;;;;98.45;37.45;;;;;;;7.23;100.00;103988.81;5054892;28;20021;-78
2021/12/17 04:18:49;;;;;;;94.45;35.58;;;;;;;7.08;100.00;103961.38;5054568;28;20049;-80
2021/12/17 04:21:15;;;;;;;95.82;34.88;;;;;;;7.28;100.00;103986.25;5054903;28;20086;-73
2021/12/17 04:23:42;;;;;;;91.55;34.90;;;;;;;7.04;100.00;103953.66;5054726;28;20112;-80
2021/12/17 04:26:07;;;;;;;89.20;35.03;;;;;;;7.03;100.00;103954.50;5054683;28;20032;-76
2021/12/17 04:28:41;;;;;;;88.95;34.05;;;;;;;7.20;100.00;103975.97;5054662;28;20029;-73
2021/12/17 04:31:07;;;;;;;87.47;33.40;;;;;;;7.28;100.00;103984.56;5054620;28;20031;-79
2021/12/17 04:33:32;;;;;;;81.15;32.45;;;;;;;7.27;100.00;103987.09;5054445;28;20029;-83
2021/12/17 04:35:57;;;;;;;78.47;30.63;;;;;;;7.27;100.00;103992.22;5054585;28;20437;-78
2021/12/17 04:38:25;;;;;;;78.00;33.00;;;;;;;7.06;100.00;103963.06;5054606;28;20080;-74
2021/12/17 04:40:52;;;;;;;84.00;31.77;;;;;;;7.17;100.00;103981.06;5054374;28;20036;-79
2021/12/17 04:43:31;;;;;;;80.07;31.42;;;;;;;7.10;100.00;103964.81;5052371;28;20052;-78
2021/12/17 04:46:13;;;;;;;79.90;31.40;;;;;;;7.21;100.00;103994.81;5054261;28;20021;-78
2021/12/17 04:59:41;;;;;;;73.50;30.17;;;;;;;7.17;100.00;103986.22;4973223;28;20035;-81
2021/12/17 05:02:06;;;;;;;70.40;30.70;;;;;;;7.08;100.00;103975.91;4957103;28;20031;-81
2021/12/17 05:04:32;;;;;;;67.82;29.65;;;;;;;7.05;100.00;103970.78;4972829;28;20037;-77
2021/12/17 05:06:57;;;;;;;73.30;30.20;;;;;;;6.93;100.00;103961.34;4973201;28;20038;-72
2021/12/17 05:09:32;;;;;;;72.00;30.35;;;;;;;6.97;100.00;103963.03;4972997;28;20033;-72
2021/12/17 05:22:57;;;;;;;64.45;27.33;;;;;;;6.92;100.00;103975.03;4972843;28;20110;-76
2021/12/17 05:25:26;;;;;;;64.65;29.05;;;;;;;7.04;100.00;104000.75;4972810;28;20093;-80
2021/12/17 05:27:59;;;;;;;68.45;27.33;;;;;;;7.04;100.00;104005.91;4972600;28;20042;-73
2021/12/17 05:30:25;;;;;;;60.53;27.65;;;;;;;6.95;100.00;103982.75;5029693;28;20041;-73
2021/12/17 05:32:50;;;;;;;62.60;28.38;;;;;;;6.99;100.00;103991.34;5053268;28;20037;-77
2021/12/17 05:35:16;;;;;;;59.55;29.05;;;;;;;7.04;100.00;104003.31;5053389;28;20033;-75
2021/12/17 05:37:41;;;;;;;60.25;28.63;;;;;;;7.02;100.00;104002.47;5052319;28;20104;-74
2021/12/17 05:40:07;;;;;;;65.95;28.75;;;;;;;7.02;100.00;104001.63;5053559;28;20053;-72
2021/12/17 05:42:32;;;;;;;66.50;27.10;;;;;;;6.89;100.00;103981.03;5052970;28;20028;-75
2021/12/17 05:45:07;;;;;;;59.42;26.30;;;;;;;6.95;100.00;103982.75;5053211;28;20029;-72
2021/12/17 05:47:32;;;;;;;60.95;26.98;;;;;;;6.79;100.00;103948.47;5053213;28;20032;-74
2021/12/17 05:49:57;;;;;;;58.42;26.95;;;;;;;7.07;100.00;103987.06;5052979;28;20020;-74
2021/12/17 05:52:22;;;;;;;58.10;26.58;;;;;;;6.97;100.00;103983.59;5053218;28;20071;-75
2021/12/17 05:54:48;;;;;;;57.80;26.95;;;;;;;7.07;100.00;103998.19;5052957;28;20029;-81
2021/12/17 05:57:13;;;;;;;56.78;28.65;;;;;;;7.08;100.00;104002.50;5052981;28;20081;-79
2021/12/17 05:59:39;;;;;;;60.90;26.85;;;;;;;6.80;100.00;103964.75;5052987;28;20032;-80
2021/12/17 06:02:09;;;;;;;58.13;26.10;;;;;;;6.94;100.00;103987.88;5053037;28;20064;-74
2021/12/17 06:04:35;;;;;;;62.08;27.13;;;;;;;7.02;100.00;104009.31;5052917;28;20025;-73
2021/12/17 06:07:00;;;;;;;55.85;26.33;;;;;;;7.05;100.00;104014.47;5052819;28;20078;-81
2021/12/17 06:09:25;;;;;;;54.55;26.55;;;;;;;6.94;100.00;103993.03;5052843;28;20074;-74
2021/12/17 06:11:50;;;;;;;53.75;28.08;;;;;;;7.01;100.00;104012.75;5052682;28;20376;-73
2021/12/17 06:14:16;;;;;;;56.10;27.17;;;;;;;7.00;100.00;104014.47;5052634;28;20086;-72
2021/12/17 06:16:41;;;;;;;55.38;27.58;;;;;;;6.79;100.00;103984.44;5050664;28;20021;-74
2021/12/17 06:19:07;;;;;;;56.15;26.92;;;;;;;6.96;100.00;104015.28;5052609;28;20072;-76
2021/12/17 06:21:32;;;;;;;53.92;27.33;;;;;;;6.77;100.00;103995.53;5052555;28;20040;-80
2021/12/17 06:23:58;;;;;;;57.58;27.70;;;;;;;6.89;100.00;104021.28;5051485;28;20029;-73
2021/12/17 06:26:23;;;;;;;56.35;27.58;;;;;;;6.80;100.00;104000.69;5052646;28;20159;-72
2021/12/17 06:28:50;;;;;;;51.58;27.90;;;;;;;6.92;100.00;104025.56;5052430;28;20017;-76
2021/12/17 06:31:20;;;;;;;55.97;29.05;;;;;;;6.72;100.00;103999.81;5052444;28;20032;-76
2021/12/17 06:33:46;;;;;;;61.17;29.42;;;;;;;6.90;100.00;104036.69;5052561;28;20032;-76
2021/12/17 06:36:12;;;;;;;58.88;28.80;;;;;;;6.88;100.00;104043.56;5052363;28;20021;-81
2021/12/17 06:38:37;;;;;;;53.33;28.48;;;;;;;6.89;100.00;104035.00;5052725;28;20021;-75
2021/12/17 06:41:03;;;;;;;57.08;29.02;;;;;;;6.88;100.00;104030.72;5052285;28;20025;-77
2021/12/17 06:43:36;;;;;;;60.40;28.23;;;;;;;6.92;100.00;104031.56;5052267;28;20021;-72
2021/12/17 06:46:30;;;;;;;58.08;30.00;;;;;;;6.93;100.00;104028.13;5051128;28;20025;-74
2021/12/17 06:48:51;;;;;;;54.17;27.90;;;;;;;6.93;100.00;104025.56;5051857;28;20056;-82
2021/12/17 06:59:52;;;;;;;50.17;27.05;;;;;;;6.98;100.00;104020.44;5052108;28;20048;-82
2021/12/17 07:34:08;;;;;;;45.13;26.63;;;;;;;6.81;100.00;103981.88;4995031;28;20088;-86
2021/12/17 07:36:43;;;;;;;51.58;28.65;;;;;;;6.99;100.00;104017.03;4994185;28;20034;-73
2021/12/17 07:39:09;;;;;;;51.03;28.48;;;;;;;7.02;100.00;104017.03;4994345;28;20458;-80
2021/12/17 07:41:35;;;;;;;48.97;26.90;;;;;;;7.04;100.00;104015.31;4994123;28;20062;-73
2021/12/17 07:44:02;;;;;;;48.63;27.75;;;;;;;7.05;100.00;104017.03;4993899;28;20450;-78
2021/12/17 07:46:28;;;;;;;50.58;27.20;;;;;;;6.95;100.00;104005.88;4994232;28;20113;-81
2021/12/17 07:48:54;;;;;;;50.83;26.77;;;;;;;7.01;100.00;104007.63;4993857;28;20522;-82
2021/12/17 07:51:23;;;;;;;49.20;28.00;;;;;;;6.97;100.00;104004.16;4994015;28;20046;-77
2021/12/17 07:53:49;;;;;;;47.58;27.05;;;;;;;7.03;100.00;104019.59;4993850;28;20027;-73
2021/12/17 07:56:18;;;;;;;49.50;27.30;;;;;;;7.04;100.00;104015.31;4993914;28;20109;-75
2021/12/17 07:58:44;;;;;;;47.92;28.15;;;;;;;7.03;100.00;104023.88;4977534;28;20116;-71
2021/12/17 08:01:10;;;;;;;48.85;25.45;;;;;;;7.05;100.00;104020.47;4993648;28;20066;-72
2021/12/17 08:03:37;;;;;;;47.35;25.95;;;;;;;7.08;100.00;104024.75;5036731;28;20041;-81
2021/12/17 08:06:03;;;;;;;48.45;26.48;;;;;;;7.07;100.00;104021.31;5055265;28;20510;-84
2021/12/17 08:08:29;;;;;;;49.15;26.30;;;;;;;7.05;100.00;104019.59;5055112;28;20048;-82
2021/12/17 08:10:54;;;;;;;50.35;26.30;;;;;;;6.91;100.00;104009.28;5054825;28;20428;-73
2021/12/17 08:13:26;;;;;;;48.35;26.77;;;;;;;7.00;100.00;104029.88;5055186;28;20108;-80
2021/12/17 08:31:25;;;;;;;48.83;26.45;;;;;;;7.02;100.00;104047.88;5054207;28;20033;-77
2021/12/17 08:33:51;;;;;;;51.78;26.13;;;;;;;6.82;100.00;104010.13;5054540;28;20538;-71
2021/12/17 08:36:17;;;;;;;51.97;26.35;;;;;;;6.84;100.00;104007.56;5054844;28;20021;-79
2021/12/17 08:38:43;;;;;;;54.75;27.38;;;;;;;6.73;100.00;103992.09;5054185;28;20025;-80
2021/12/17 08:41:09;;;;;;;55.35;26.52;;;;;;;7.06;100.00;104047.88;5054674;28;20021;-89
2021/12/17 08:43:35;;;;;;;58.00;27.48;;;;;;;6.84;100.00;104012.69;5054359;28;20052;-81
2021/12/17 08:46:00;;;;;;;60.72;28.00;;;;;;;6.69;100.00;103981.81;5054059;28;20065;-79
2021/12/17 08:48:26;;;;;;;53.88;27.38;;;;;;;7.08;100.00;104046.19;5054360;28;20380;-89
2021/12/17 08:50:51;;;;;;;59.30;27.90;;;;;;;6.70;100.00;103979.25;5054226;28;20495;-85
2021/12/17 08:53:17;;;;;;;59.40;28.58;;;;;;;7.13;100.00;104047.03;5054018;28;20040;-78
2021/12/17 08:55:45;;;;;;;59.35;27.65;;;;;;;6.93;100.00;104012.72;5054292;28;20108;-84
2021/12/17 08:58:13;;;;;;;54.70;27.08;;;;;;;7.04;100.00;104031.59;5054158;28;20025;-84
2021/12/17 09:00:40;;;;;;;58.33;29.00;;;;;;;7.17;100.00;104040.19;5054168;28;20049;-89
2021/12/17 09:03:09;;;;;;;64.18;29.00;;;;;;;7.00;100.00;104008.47;5054293;28;20369;-90
2021/12/17 09:05:37;;;;;;;62.13;27.88;;;;;;;7.04;100.00;104020.47;5054387;28;20025;-88
2021/12/17 09:08:06;;;;;;;57.42;27.13;;;;;;;7.22;100.00;104046.22;5054031;28;20483;-86
2021/12/17 09:10:32;;;;;;;60.53;27.73;;;;;;;7.25;100.00;104050.50;5054132;28;20025;-89
2021/12/17 09:12:58;;;;;;;55.10;25.27;;;;;;;7.22;100.00;104050.50;5054089;28;20104;-89
2021/12/17 09:15:23;;;;;;;60.45;27.33;;;;;;;7.19;100.00;104067.63;5053724;28;20071;-89
2021/12/17 09:17:48;;;;;;;57.67;26.42;;;;;;;7.18;100.00;104068.50;5053783;28;20025;-88
2021/12/17 09:20:14;;;;;;;58.45;26.35;;;;;;;6.87;100.00;104034.09;5054114;28;20028;-88
2021/12/17 09:22:39;;;;;;;66.05;27.90;;;;;;;7.09;100.00;104076.16;5053958;28;20033;-90
2021/12/17 09:25:05;;;;;;;67.18;27.85;;;;;;;7.09;100.00;104075.31;5052843;28;20025;-90
2021/12/17 09:27:31;;;;;;;62.92;27.35;;;;;;;6.91;100.00;104052.97;5054225;28;20029;-90
2021/12/17 09:29:57;;;;;;;68.80;27.17;;;;;;;7.07;100.00;104077.00;5053621;28;20029;-85
2021/12/17 09:32:22;;;;;;;66.63;27.67;;;;;;;7.05;100.00;104081.28;5053258;28;20032;-87
2021/12/17 09:34:47;;;;;;;63.88;26.95;;;;;;;6.93;100.00;104051.25;5053227;28;20025;-88
2021/12/17 09:37:13;;;;;;;63.53;26.85;;;;;;;7.08;100.00;104068.44;5052325;28;20074;-90
2021/12/17 09:39:41;;;;;;;59.83;25.95;;;;;;;7.17;100.00;104077.03;5053332;28;20036;-90
2021/12/17 09:42:07;;;;;;;62.70;26.02;;;;;;;7.17;100.00;104077.03;5053302;28;20025;-90
2021/12/17 09:44:32;;;;;;;58.88;25.38;;;;;;;7.22;100.00;104083.91;5053510;28;20036;-90
2021/12/17 09:46:59;;;;;;;66.35;26.02;;;;;;;7.09;100.00;104050.47;5053349;28;20045;-88
2021/12/17 09:49:25;;;;;;;57.53;24.42;;;;;;;7.31;100.00;104087.38;5053208;28;20028;-88
2021/12/17 09:51:50;;;;;;;61.22;25.50;;;;;;;7.22;100.00;104071.06;5053286;28;20022;-86
2021/12/17 09:54:17;;;;;;;62.10;25.25;;;;;;;7.39;100.00;104097.69;5051459;28;20488;-89
2021/12/17 09:56:43;;;;;;;60.45;24.02;;;;;;;7.23;100.00;104078.78;5053143;28;20021;-89
2021/12/17 09:59:10;;;;;;;53.10;23.10;;;;;;;7.41;100.00;104101.97;5053329;28;20078;-89
2021/12/17 10:01:37;;;;;;;53.05;22.52;;;;;;;7.41;100.00;104095.97;5053597;28;20025;-90
2021/12/17 10:04:24;;;;;;;57.80;23.98;;;;;;;7.29;100.00;104081.38;5052719;28;20024;-81
2021/12/17 10:06:50;;;;;;;56.00;23.15;;;;;;;7.47;100.00;104112.28;5052928;28;20029;-81
2021/12/17 10:09:16;;;;;;;55.97;23.42;;;;;;;7.53;100.00;104114.00;5053056;28;20047;-85
2021/12/17 10:12:06;;;;;;;61.78;24.23;;;;;;;7.49;100.00;104107.13;5051638;28;20037;-82
2021/12/17 10:14:32;;;;;;;55.13;23.02;;;;;;;7.59;100.00;104115.72;5052675;28;20021;-83
2021/12/17 10:17:12;;;;;;;52.10;21.88;;;;;;;7.45;100.00;104092.53;5051250;28;20511;-84
2021/12/17 10:19:49;;;;;;;49.63;21.92;;;;;;;7.48;100.00;104100.28;5052563;28;20094;-83
2021/12/17 10:22:18;;;;;;;48.20;20.48;;;;;;;7.55;100.00;104109.69;5052941;28;20045;-84
2021/12/17 10:25:05;;;;;;;48.55;20.92;;;;;;;7.55;100.00;104098.56;5052688;28;20036;-83
2021/12/17 10:27:40;;;;;;;43.13;17.92;;;;;;;7.59;100.00;104111.44;5053011;28;20373;-84
2021/12/17 10:30:08;;;;;;;46.08;19.20;;;;;;;7.62;100.00;104114.00;5052496;28;20029;-83
2021/12/17 10:32:34;;;;;;;43.10;17.40;;;;;;;7.46;100.00;104082.25;5052312;28;20110;-83
2021/12/17 10:35:04;;;;;;;40.65;17.70;;;;;;;7.65;100.00;104118.28;5052769;28;20017;-86
2021/12/17 10:37:43;;;;;;;40.92;17.00;;;;;;;7.60;100.00;104113.16;5052422;28;20434;-87
2021/12/17 10:40:24;;;;;;;42.40;16.90;;;;;;;7.61;100.00;104114.88;5052522;28;20027;-88
2021/12/17 10:43:01;;;;;;;43.17;16.00;;;;;;;7.55;100.00;104101.97;5052464;28;20025;-86
2021/12/17 10:45:30;;;;;;;44.13;17.38;;;;;;;7.62;100.00;104111.44;5052596;28;20108;-83
2021/12/17 10:50:55;;;;;;;42.40;16.13;;;;;;;7.71;100.00;104115.75;5052668;28;20033;-83
2021/12/17 10:53:24;;;;;;;42.50;17.13;;;;;;;7.72;100.00;104118.31;5052111;28;20053;-82
2021/12/17 10:55:50;;;;;;;45.13;17.15;;;;;;;7.74;100.00;104124.31;5052470;28;20032;-83
2021/12/17 10:58:16;;;;;;;42.35;17.38;;;;;;;7.54;100.00;104089.13;5052497;28;20044;-85
2021/12/17 11:00:50;;;;;;;38.17;16.60;;;;;;;7.51;100.00;104089.13;5052330;28;20093;-84
2021/12/17 11:03:15;;;;;;;42.65;16.35;;;;;;;7.57;100.00;104095.16;5055272;28;20131;-83
2021/12/17 11:05:41;;;;;;;40.13;15.88;;;;;;;7.69;100.00;104127.75;5056297;28;20113;-83
2021/12/17 11:08:19;;;;;;;38.22;14.75;;;;;;;7.63;100.00;104117.44;5056269;28;20028;-77
2021/12/17 11:10:56;;;;;;;34.45;14.82;;;;;;;7.65;100.00;104119.16;5056389;28;20017;-83
2021/12/17 11:13:21;;;;;;;32.58;13.95;;;;;;;7.68;100.00;104116.59;5056046;28;20417;-82
2021/12/17 11:15:49;;;;;;;34.80;13.85;;;;;;;7.76;100.00;104120.03;5054872;28;20095;-80
2021/12/17 11:18:15;;;;;;;28.52;12.50;;;;;;;7.53;100.00;104070.28;5057421;28;20049;-84
2021/12/17 11:20:41;;;;;;;32.63;13.57;;;;;;;7.79;100.00;104116.63;5059180;28;20017;-84
2021/12/17 11:23:12;;;;;;;29.67;13.00;;;;;;;7.80;100.00;104109.75;5056428;28;20033;-85
2021/12/17 11:25:41;;;;;;;28.95;12.68;;;;;;;7.83;100.00;104109.75;5055974;28;20029;-83
2021/12/17 11:28:08;;;;;;;27.23;12.00;;;;;;;7.83;100.00;104100.31;5055641;28;20029;-84
2021/12/17 11:30:36;;;;;;;25.70;12.05;;;;;;;7.89;100.00;104102.91;5055960;28;20064;-82
2021/12/17 11:33:04;;;;;;;27.90;12.15;;;;;;;7.91;100.00;104092.63;5055453;28;20480;-82
2021/12/17 11:35:31;;;;;;;26.60;12.10;;;;;;;7.93;100.00;104094.31;5055731;28;20025;-87
2021/12/17 11:38:04;;;;;;;25.77;10.75;;;;;;;7.93;100.00;104089.19;5055807;28;20033;-85
2021/12/17 11:40:44;;;;;;;24.15;10.90;;;;;;;7.90;100.00;104081.47;5055702;28;20029;-85
2021/12/17 11:43:16;;;;;;;25.52;11.35;;;;;;;7.91;100.00;104079.75;5055518;28;20028;-82
2021/12/17 11:45:55;;;;;;;24.58;10.90;;;;;;;7.84;100.00;104076.31;5055731;28;20021;-85
2021/12/17 11:48:22;;;;;;;26.60;11.32;;;;;;;7.65;100.00;104043.69;5055190;28;20025;-84
2021/12/17 11:51:05;;;;;;;23.23;9.25;;;;;;;7.93;100.00;104080.59;5055530;28;20104;-80
2021/12/17 11:53:32;;;;;;;20.33;9.98;;;;;;;7.91;100.00;104083.19;5055083;28;20457;-79
2021/12/17 11:56:00;;;;;;;20.35;9.40;;;;;;;7.88;100.00;104072.88;5053676;28;20496;-79
2021/12/17 11:58:49;;;;;;;22.27;10.10;;;;;;;7.88;100.00;104075.47;5055165;28;20029;-77
2021/12/17 12:01:49;;;;;;;19.15;9.73;;;;;;;7.93;100.00;104075.44;5055235;28;20027;-80
2021/12/17 12:04:41;;;;;;;20.42;8.75;;;;;;;7.91;100.00;104069.44;5055201;28;20119;-78
2021/12/17 12:07:40;;;;;;;17.80;7.95;;;;;;;7.89;100.00;104081.47;5055002;28;20021;-78
2021/12/17 12:10:12;;;;;;;16.98;7.72;;;;;;;7.86;100.00;104074.59;5051503;28;20083;-76
2021/12/17 12:12:38;;;;;;;18.70;8.30;;;;;;;7.88;100.00;104075.47;5054953;28;20037;-79
2021/12/17 12:15:24;;;;;;;18.10;8.25;;;;;;;7.90;100.00;104080.59;5053710;28;20436;-80
2021/12/17 12:18:12;;;;;;;16.27;7.35;;;;;;;7.86;100.00;104081.44;5054012;28;20052;-79
2021/12/17 12:20:52;;;;;;;15.98;7.30;;;;;;;7.79;100.00;104080.59;5054594;28;20037;-78
2021/12/17 12:23:29;;;;;;;14.73;7.78;;;;;;;7.76;100.00;104090.88;5054657;28;20037;-75
2021/12/17 12:26:11;;;;;;;15.10;6.90;;;;;;;7.72;100.00;104089.16;5054623;28;20036;-79
2021/12/17 12:28:43;;;;;;;13.27;7.18;;;;;;;7.66;100.00;104084.84;5054575;28;20522;-79
2021/12/17 12:31:08;;;;;;;12.40;6.68;;;;;;;7.63;100.00;104086.56;5054201;28;20029;-78
2021/12/17 12:33:33;;;;;;;13.02;5.93;;;;;;;7.45;99.92;104059.09;5054446;28;20024;-80
2021/12/17 12:35:59;;;;;;;12.02;6.10;;;;;;;7.53;99.98;104059.13;5054442;28;20544;-81
2021/12/17 12:38:31;;;;;;;9.52;4.95;;;;;;;7.58;98.74;104080.59;5054325;28;20381;-80
2021/12/17 12:40:59;;;;;;;11.13;5.15;;;;;;;7.44;99.34;104063.41;5054222;28;20025;-79
2021/12/17 12:43:34;;;;;;;10.63;5.45;;;;;;;7.46;99.04;104068.53;5054300;28;20025;-81
2021/12/17 12:46:00;;;;;;;9.23;5.38;;;;;;;7.45;99.03;104069.41;5054040;28;20029;-76
2021/12/17 12:48:38;;;;;;;10.20;5.15;;;;;;;7.57;99.26;104083.97;5053868;28;20052;-78
2021/12/17 12:51:19;;;;;;;9.05;5.07;;;;;;;7.38;98.53;104049.69;5053708;28;20075;-80
2021/12/17 12:54:09;;;;;;;10.13;5.53;;;;;;;7.40;98.87;104053.13;5054365;28;20079;-77
2021/12/17 12:56:38;;;;;;;8.80;4.57;;;;;;;7.44;97.84;104068.53;5054433;28;20424;-81
2021/12/17 12:59:06;;;;;;;8.98;4.05;;;;;;;7.45;97.94;104066.81;5054186;28;20108;-79
2021/12/17 13:01:32;;;;;;;7.40;3.60;;;;;;;7.44;98.27;104073.69;5054145;28;20025;-82
2021/12/17 13:03:57;;;;;;;7.88;4.38;;;;;;;7.23;97.16;104044.50;4992626;28;20169;-81
2021/12/17 13:06:22;;;;;;;7.93;4.40;;;;;;;7.28;97.49;104060.81;4994610;28;20113;-80
2021/12/17 13:08:53;;;;;;;8.65;4.30;;;;;;;7.34;97.49;104076.22;4994843;28;20065;-79
2021/12/17 13:11:21;;;;;;;7.35;4.20;;;;;;;7.33;98.26;104074.50;4994401;28;20026;-78
2021/12/17 13:13:53;;;;;;;7.82;4.30;;;;;;;7.28;97.82;104068.53;4994184;28;20467;-78
2021/12/17 13:16:55;;;;;;;7.40;4.03;;;;;;;7.26;98.57;104067.63;4994167;28;20036;-78
2021/12/17 13:24:26;;;;;;;6.85;3.90;;;;;;;7.19;97.75;104052.22;5013938;28;20397;-82
2021/12/17 13:26:56;;;;;;;7.35;4.13;;;;;;;7.25;97.56;104061.63;5013672;28;20025;-76
2021/12/17 13:29:24;;;;;;;8.90;4.90;;;;;;;7.26;97.97;104060.78;4995468;28;20038;-82
2021/12/17 13:31:56;;;;;;;8.40;4.70;;;;;;;7.30;98.05;104069.38;5013486;28;20105;-74
2021/12/17 13:34:29;;;;;;;9.15;4.22;;;;;;;7.28;98.09;104073.66;5013470;28;20105;-77
2021/12/17 13:36:59;;;;;;;8.18;3.97;;;;;;;7.23;98.16;104059.91;5013681;28;20021;-77
2021/12/17 13:39:32;;;;;;;7.15;4.53;;;;;;;7.25;98.34;104071.06;5013833;28;20065;-83
2021/12/17 13:41:58;;;;;;;7.32;4.32;;;;;;;7.24;97.59;104082.19;5013355;28;20029;-81
2021/12/17 13:44:51;;;;;;;8.50;4.50;;;;;;;7.21;97.74;104071.91;5013640;28;20037;-82
2021/12/17 13:47:17;;;;;;;6.60;4.25;;;;;;;7.18;97.98;104072.78;5013318;28;20108;-80
2021/12/17 13:49:49;;;;;;;7.55;4.18;;;;;;;7.01;98.35;104047.00;5013109;28;20058;-82
2021/12/17 13:52:16;;;;;;;6.80;4.53;;;;;;;7.17;98.43;104069.31;5012842;28;20385;-76
2021/12/17 13:54:45;;;;;;;8.93;4.20;;;;;;;7.16;97.57;104071.88;5012741;28;20101;-79
2021/12/17 13:57:14;;;;;;;7.65;4.60;;;;;;;7.09;98.08;104060.75;5013231;28;20033;-81
2021/12/17 13:59:40;;;;;;;6.78;3.97;;;;;;;7.02;98.20;104040.16;5013562;28;20455;-80
2021/12/17 14:02:13;;;;;;;7.13;4.22;;;;;;;7.24;98.09;104067.63;5013289;28;20034;-81
2021/12/17 14:04:41;;;;;;;7.60;4.43;;;;;;;7.16;97.26;104052.19;5013165;28;20032;-80
2021/12/17 14:07:08;;;;;;;6.95;4.20;;;;;;;7.24;97.76;104062.50;5012961;28;20076;-78
2021/12/17 14:09:35;;;;;;;7.00;4.32;;;;;;;7.24;97.68;104070.22;5012965;28;20388;-80
2021/12/17 14:12:23;;;;;;;9.23;5.30;;;;;;;6.81;97.69;104008.41;5012737;28;20022;-79
2021/12/17 14:14:56;;;;;;;8.63;5.60;;;;;;;7.22;98.00;104073.63;5013010;28;20119;-80
2021/12/17 14:17:21;;;;;;;8.50;5.05;;;;;;;7.19;97.77;104071.91;5012983;28;20389;-81
2021/12/17 14:19:47;;;;;;;8.15;5.30;;;;;;;7.01;98.00;104048.72;5012525;28;20042;-79